sensor_id;sensor_type;location;lat;lon;timestamp;pressure;altitude;pressure_sealevel;temperature;humidity
60417;BME280;46263;44.726;10.396;2023-01-28T00:02:17;100531.13;;;6.18;54.18
60417;BME280;46263;44.726;10.396;2023-01-28T00:04:43;100530.84;;;6.16;54.44
60417;BME280;46263;44.726;10.396;2023-01-28T00:07:09;100534.41;;;6.17;54.00
60417;BME280;46263;44.726;10.396;2023-01-28T00:09:34;100530.31;;;6.12;54.30
60417;BME280;46263;44.726;10.396;2023-01-28T00:12:00;100523.75;;;6.10;54.28
60417;BME280;46263;44.726;10.396;2023-01-28T00:14:25;100524.50;;;6.10;55.00
60417;BME280;46263;44.726;10.396;2023-01-28T00:16:51;100526.31;;;6.13;54.47
60417;BME280;46263;44.726;10.396;2023-01-28T00:19:16;100518.22;;;6.15;54.96
60417;BME280;46263;44.726;10.396;2023-01-28T00:21:42;100528.09;;;6.16;54.97
60417;BME280;46263;44.726;10.396;2023-01-28T00:24:08;100530.38;;;6.18;54.85
60417;BME280;46263;44.726;10.396;2023-01-28T00:26:34;100523.09;;;6.20;55.43
60417;BME280;46263;44.726;10.396;2023-01-28T00:29:00;100526.13;;;6.22;55.02
60417;BME280;46263;44.726;10.396;2023-01-28T00:31:26;100521.63;;;6.25;55.06
60417;BME280;46263;44.726;10.396;2023-01-28T00:33:53;100520.09;;;6.24;55.12
60417;BME280;46263;44.726;10.396;2023-01-28T00:36:20;100526.41;;;6.24;55.25
60417;BME280;46263;44.726;10.396;2023-01-28T00:38:51;100527.72;;;6.29;55.97
60417;BME280;46263;44.726;10.396;2023-01-28T00:41:18;100543.66;;;6.33;55.05
60417;BME280;46263;44.726;10.396;2023-01-28T00:43:46;100538.59;;;6.32;55.00
60417;BME280;46263;44.726;10.396;2023-01-28T00:46:13;100538.31;;;6.30;54.89
60417;BME280;46263;44.726;10.396;2023-01-28T00:48:40;100536.84;;;6.34;55.43
60417;BME280;46263;44.726;10.396;2023-01-28T00:51:07;100540.41;;;6.35;55.17
60417;BME280;46263;44.726;10.396;2023-01-28T00:53:33;100532.88;;;6.41;55.84
60417;BME280;46263;44.726;10.396;2023-01-28T00:56:00;100540.19;;;6.38;55.61
60417;BME280;46263;44.726;10.396;2023-01-28T00:58:26;100538.72;;;6.43;55.49
60417;BME280;46263;44.726;10.396;2023-01-28T01:00:52;100549.31;;;6.44;55.52
60417;BME280;46263;44.726;10.396;2023-01-28T01:03:18;100536.69;;;6.43;56.37
60417;BME280;46263;44.726;10.396;2023-01-28T01:05:44;100539.75;;;6.20;55.19
60417;BME280;46263;44.726;10.396;2023-01-28T01:08:10;100541.72;;;5.94;56.13
60417;BME280;46263;44.726;10.396;2023-01-28T01:10:37;100537.66;;;5.75;56.90
60417;BME280;46263;44.726;10.396;2023-01-28T01:13:04;100543.31;;;5.61;57.43
60417;BME280;46263;44.726;10.396;2023-01-28T01:15:30;100543.63;;;5.68;57.11
60417;BME280;46263;44.726;10.396;2023-01-28T01:17:56;100549.44;;;5.85;57.32
60417;BME280;46263;44.726;10.396;2023-01-28T01:20:26;100541.28;;;6.01;57.02
60417;BME280;46263;44.726;10.396;2023-01-28T01:22:52;100543.69;;;6.14;56.67
60417;BME280;46263;44.726;10.396;2023-01-28T01:25:18;100547.78;;;6.18;56.45
60417;BME280;46263;44.726;10.396;2023-01-28T01:27:47;100551.38;;;6.24;56.54
60417;BME280;46263;44.726;10.396;2023-01-28T01:30:13;100546.63;;;6.30;56.16
60417;BME280;46263;44.726;10.396;2023-01-28T01:32:39;100556.28;;;6.34;56.46
60417;BME280;46263;44.726;10.396;2023-01-28T01:35:05;100557.34;;;6.17;55.33
60417;BME280;46263;44.726;10.396;2023-01-28T01:37:33;100554.41;;;6.01;55.88
60417;BME280;46263;44.726;10.396;2023-01-28T01:39:59;100555.44;;;5.83;56.48
60417;BME280;46263;44.726;10.396;2023-01-28T01:42:26;100557.31;;;5.92;56.54
60417;BME280;46263;44.726;10.396;2023-01-28T01:44:56;100563.97;;;5.80;57.32
60417;BME280;46263;44.726;10.396;2023-01-28T01:47:26;100574.72;;;5.92;56.80
60417;BME280;46263;44.726;10.396;2023-01-28T01:49:54;100582.69;;;6.05;56.78
60417;BME280;46263;44.726;10.396;2023-01-28T01:52:25;100586.56;;;6.13;57.68
60417;BME280;46263;44.726;10.396;2023-01-28T01:54:56;100579.81;;;6.19;57.09
60417;BME280;46263;44.726;10.396;2023-01-28T01:57:27;100586.47;;;6.27;56.79
60417;BME280;46263;44.726;10.396;2023-01-28T01:59:55;100587.28;;;6.33;56.64
60417;BME280;46263;44.726;10.396;2023-01-28T02:02:23;100579.69;;;6.28;56.90
60417;BME280;46263;44.726;10.396;2023-01-28T02:04:48;100581.59;;;6.22;56.86
60417;BME280;46263;44.726;10.396;2023-01-28T02:07:15;100592.31;;;6.29;56.38
60417;BME280;46263;44.726;10.396;2023-01-28T02:09:42;100579.25;;;6.35;56.25
60417;BME280;46263;44.726;10.396;2023-01-28T02:12:18;100591.44;;;6.43;56.67
60417;BME280;46263;44.726;10.396;2023-01-28T02:15:18;100585.16;;;6.48;57.29
60417;BME280;46263;44.726;10.396;2023-01-28T02:17:45;100582.97;;;6.52;56.35
60417;BME280;46263;44.726;10.396;2023-01-28T02:20:13;100588.50;;;6.52;56.16
60417;BME280;46263;44.726;10.396;2023-01-28T02:25:56;100589.88;;;6.62;56.72
60417;BME280;46263;44.726;10.396;2023-01-28T02:34:32;100593.06;;;6.55;57.54
60417;BME280;46263;44.726;10.396;2023-01-28T02:37:06;100587.28;;;6.58;56.94
60417;BME280;46263;44.726;10.396;2023-01-28T02:39:42;100583.75;;;6.58;57.20
60417;BME280;46263;44.726;10.396;2023-01-28T02:42:13;100587.63;;;6.66;56.79
60417;BME280;46263;44.726;10.396;2023-01-28T02:44:42;100598.50;;;6.69;57.11
60417;BME280;46263;44.726;10.396;2023-01-28T02:47:12;100591.22;;;6.72;57.54
60417;BME280;46263;44.726;10.396;2023-01-28T02:49:59;100590.69;;;6.68;57.65
60417;BME280;46263;44.726;10.396;2023-01-28T03:02:02;100587.50;;;6.55;59.52
60417;BME280;46263;44.726;10.396;2023-01-28T03:04:40;100595.84;;;6.55;59.64
60417;BME280;46263;44.726;10.396;2023-01-28T03:07:08;100601.59;;;6.51;60.42
60417;BME280;46263;44.726;10.396;2023-01-28T03:09:38;100592.75;;;6.47;60.52
60417;BME280;46263;44.726;10.396;2023-01-28T03:12:22;100594.81;;;6.52;60.69
60417;BME280;46263;44.726;10.396;2023-01-28T03:15:20;100597.38;;;6.56;60.88
60417;BME280;46263;44.726;10.396;2023-01-28T03:19:08;100605.16;;;6.52;60.80
60417;BME280;46263;44.726;10.396;2023-01-28T03:21:24;100605.16;;;6.52;61.79
60417;BME280;46263;44.726;10.396;2023-01-28T03:24:22;100600.84;;;6.51;61.70
60417;BME280;46263;44.726;10.396;2023-01-28T03:27:17;100601.00;;;6.42;62.06
60417;BME280;46263;44.726;10.396;2023-01-28T03:30:17;100598.38;;;6.33;63.07
60417;BME280;46263;44.726;10.396;2023-01-28T03:33:04;100604.72;;;6.33;62.63
60417;BME280;46263;44.726;10.396;2023-01-28T03:35:49;100604.53;;;6.42;62.46
60417;BME280;46263;44.726;10.396;2023-01-28T03:38:32;100611.69;;;6.49;62.35
60417;BME280;46263;44.726;10.396;2023-01-28T03:41:08;100614.47;;;6.49;63.25
60417;BME280;46263;44.726;10.396;2023-01-28T03:43:35;100617.13;;;6.38;62.79
60417;BME280;46263;44.726;10.396;2023-01-28T03:46:01;100608.81;;;6.38;63.80
60417;BME280;46263;44.726;10.396;2023-01-28T03:48:27;100615.59;;;6.37;63.49
60417;BME280;46263;44.726;10.396;2023-01-28T03:50:56;100606.03;;;6.38;63.26
60417;BME280;46263;44.726;10.396;2023-01-28T03:53:25;100614.22;;;6.27;64.00
60417;BME280;46263;44.726;10.396;2023-01-28T03:55:52;100616.44;;;6.23;64.51
60417;BME280;46263;44.726;10.396;2023-01-28T03:58:19;100612.63;;;6.21;64.60
60417;BME280;46263;44.726;10.396;2023-01-28T04:00:45;100610.13;;;6.23;64.46
60417;BME280;46263;44.726;10.396;2023-01-28T04:03:14;100610.63;;;6.21;64.60
60417;BME280;46263;44.726;10.396;2023-01-28T04:08:21;100609.84;;;6.21;64.53
60417;BME280;46263;44.726;10.396;2023-01-28T04:10:47;100612.84;;;6.17;65.33
60417;BME280;46263;44.726;10.396;2023-01-28T04:13:12;100607.56;;;6.19;65.04
60417;BME280;46263;44.726;10.396;2023-01-28T04:15:38;100604.59;;;6.23;64.76
60417;BME280;46263;44.726;10.396;2023-01-28T04:18:03;100610.88;;;6.23;64.95
60417;BME280;46263;44.726;10.396;2023-01-28T04:20:30;100612.97;;;6.28;64.80
60417;BME280;46263;44.726;10.396;2023-01-28T04:22:56;100613.41;;;6.21;65.51
60417;BME280;46263;44.726;10.396;2023-01-28T04:25:22;100612.75;;;6.32;65.00
60417;BME280;46263;44.726;10.396;2023-01-28T04:27:48;100605.47;;;6.34;64.54
60417;BME280;46263;44.726;10.396;2023-01-28T04:30:14;100606.19;;;6.29;65.20
60417;BME280;46263;44.726;10.396;2023-01-28T04:32:40;100603.97;;;6.13;65.25
60417;BME280;46263;44.726;10.396;2023-01-28T04:35:06;100602.81;;;6.00;65.55
60417;BME280;46263;44.726;10.396;2023-01-28T04:37:31;100604.19;;;6.10;64.99
60417;BME280;46263;44.726;10.396;2023-01-28T04:39:57;100605.47;;;6.14;64.94
60417;BME280;46263;44.726;10.396;2023-01-28T04:42:22;100616.84;;;6.16;64.75
60417;BME280;46263;44.726;10.396;2023-01-28T04:44:48;100615.13;;;6.19;65.02
60417;BME280;46263;44.726;10.396;2023-01-28T04:47:14;100611.09;;;6.20;65.03
60417;BME280;46263;44.726;10.396;2023-01-28T04:49:39;100618.94;;;6.21;64.71
60417;BME280;46263;44.726;10.396;2023-01-28T04:52:05;100624.00;;;6.23;64.40
60417;BME280;46263;44.726;10.396;2023-01-28T04:54:30;100617.00;;;6.27;64.10
60417;BME280;46263;44.726;10.396;2023-01-28T04:56:56;100628.09;;;6.27;64.46
60417;BME280;46263;44.726;10.396;2023-01-28T04:59:21;100614.97;;;6.28;64.44
60417;BME280;46263;44.726;10.396;2023-01-28T05:01:48;100615.47;;;6.26;64.76
60417;BME280;46263;44.726;10.396;2023-01-28T05:04:14;100614.72;;;6.26;63.93
60417;BME280;46263;44.726;10.396;2023-01-28T05:06:41;100625.81;;;6.26;64.49
60417;BME280;46263;44.726;10.396;2023-01-28T05:09:07;100630.81;;;6.22;64.26
60417;BME280;46263;44.726;10.396;2023-01-28T05:11:33;100637.06;;;6.17;64.54
60417;BME280;46263;44.726;10.396;2023-01-28T05:13:58;100628.16;;;6.13;64.30
60417;BME280;46263;44.726;10.396;2023-01-28T05:16:24;100637.28;;;6.13;64.74
60417;BME280;46263;44.726;10.396;2023-01-28T05:18:49;100638.31;;;6.16;64.07
60417;BME280;46263;44.726;10.396;2023-01-28T05:21:16;100630.44;;;6.14;64.51
60417;BME280;46263;44.726;10.396;2023-01-28T05:23:42;100642.31;;;6.15;64.04
60417;BME280;46263;44.726;10.396;2023-01-28T05:26:08;100647.25;;;6.05;64.40
60417;BME280;46263;44.726;10.396;2023-01-28T05:28:34;100650.69;;;6.00;64.76
60417;BME280;46263;44.726;10.396;2023-01-28T05:31:07;100654.72;;;5.99;64.17
60417;BME280;46263;44.726;10.396;2023-01-28T05:33:32;100653.13;;;5.93;64.49
60417;BME280;46263;44.726;10.396;2023-01-28T05:35:58;100652.16;;;5.96;64.48
60417;BME280;46263;44.726;10.396;2023-01-28T05:38:23;100662.00;;;5.97;64.38
60417;BME280;46263;44.726;10.396;2023-01-28T05:40:49;100655.63;;;5.91;64.26
60417;BME280;46263;44.726;10.396;2023-01-28T05:43:15;100671.47;;;5.90;64.55
60417;BME280;46263;44.726;10.396;2023-01-28T05:45:41;100668.44;;;5.88;64.42
60417;BME280;46263;44.726;10.396;2023-01-28T05:48:06;100674.75;;;5.89;64.35
60417;BME280;46263;44.726;10.396;2023-01-28T05:50:32;100678.31;;;5.89;65.13
60417;BME280;46263;44.726;10.396;2023-01-28T05:52:58;100666.34;;;5.83;65.05
60417;BME280;46263;44.726;10.396;2023-01-28T05:55:24;100677.66;;;5.80;65.36
60417;BME280;46263;44.726;10.396;2023-01-28T05:57:49;100675.91;;;5.82;64.86
60417;BME280;46263;44.726;10.396;2023-01-28T06:00:15;100679.56;;;5.74;65.37
60417;BME280;46263;44.726;10.396;2023-01-28T06:02:41;100677.09;;;5.61;65.50
60417;BME280;46263;44.726;10.396;2023-01-28T06:05:08;100684.38;;;5.59;65.98
60417;BME280;46263;44.726;10.396;2023-01-28T06:07:33;100680.94;;;5.49;65.94
60417;BME280;46263;44.726;10.396;2023-01-28T06:09:59;100686.31;;;5.39;66.38
60417;BME280;46263;44.726;10.396;2023-01-28T06:12:24;100689.09;;;5.24;66.72
60417;BME280;46263;44.726;10.396;2023-01-28T06:14:50;100694.44;;;5.28;66.54
60417;BME280;46263;44.726;10.396;2023-01-28T06:17:15;100693.47;;;5.31;66.26
60417;BME280;46263;44.726;10.396;2023-01-28T06:19:41;100695.13;;;5.23;66.67
60417;BME280;46263;44.726;10.396;2023-01-28T06:22:07;100692.03;;;5.06;67.45
60417;BME280;46263;44.726;10.396;2023-01-28T06:24:32;100704.19;;;4.94;67.70
60417;BME280;46263;44.726;10.396;2023-01-28T06:26:58;100700.56;;;4.88;67.96
60417;BME280;46263;44.726;10.396;2023-01-28T06:29:23;100707.69;;;4.80;67.86
60417;BME280;46263;44.726;10.396;2023-01-28T06:31:49;100716.88;;;4.86;68.06
60417;BME280;46263;44.726;10.396;2023-01-28T06:34:15;100717.72;;;4.92;67.66
60417;BME280;46263;44.726;10.396;2023-01-28T06:36:41;100714.41;;;4.88;68.00
60417;BME280;46263;44.726;10.396;2023-01-28T06:39:07;100723.75;;;4.91;67.49
60417;BME280;46263;44.726;10.396;2023-01-28T06:41:32;100723.16;;;4.87;67.61
60417;BME280;46263;44.726;10.396;2023-01-28T06:43:58;100731.00;;;5.03;67.61
60417;BME280;46263;44.726;10.396;2023-01-28T06:46:24;100736.75;;;5.14;66.96
60417;BME280;46263;44.726;10.396;2023-01-28T06:48:49;100737.31;;;5.18;66.17
60417;BME280;46263;44.726;10.396;2023-01-28T06:51:15;100742.31;;;5.28;65.66
60417;BME280;46263;44.726;10.396;2023-01-28T06:53:40;100744.97;;;5.23;65.49
60417;BME280;46263;44.726;10.396;2023-01-28T06:56:07;100743.03;;;5.14;66.09
60417;BME280;46263;44.726;10.396;2023-01-28T06:58:33;100740.75;;;5.13;66.12
60417;BME280;46263;44.726;10.396;2023-01-28T07:01:00;100746.28;;;5.13;65.82
60417;BME280;46263;44.726;10.396;2023-01-28T07:03:25;100743.06;;;5.29;65.74
60417;BME280;46263;44.726;10.396;2023-01-28T07:05:51;100753.00;;;5.35;65.21
60417;BME280;46263;44.726;10.396;2023-01-28T07:08:17;100759.19;;;5.45;65.45
60417;BME280;46263;44.726;10.396;2023-01-28T07:10:43;100763.50;;;5.46;65.58
60417;BME280;46263;44.726;10.396;2023-01-28T07:13:09;100764.84;;;5.50;64.90
60417;BME280;46263;44.726;10.396;2023-01-28T07:15:35;100775.16;;;5.49;65.04
60417;BME280;46263;44.726;10.396;2023-01-28T07:18:01;100778.69;;;5.50;65.04
60417;BME280;46263;44.726;10.396;2023-01-28T07:20:26;100775.84;;;5.59;64.84
60417;BME280;46263;44.726;10.396;2023-01-28T07:22:52;100779.16;;;5.63;64.92
60417;BME280;46263;44.726;10.396;2023-01-28T07:25:18;100778.97;;;5.66;64.93
60417;BME280;46263;44.726;10.396;2023-01-28T07:27:48;100787.97;;;5.61;64.79
60417;BME280;46263;44.726;10.396;2023-01-28T07:30:15;100791.41;;;5.56;64.56
60417;BME280;46263;44.726;10.396;2023-01-28T07:32:41;100787.00;;;5.36;65.13
60417;BME280;46263;44.726;10.396;2023-01-28T07:35:07;100791.78;;;5.21;65.81
60417;BME280;46263;44.726;10.396;2023-01-28T07:37:32;100795.66;;;5.14;66.03
60417;BME280;46263;44.726;10.396;2023-01-28T07:39:58;100796.06;;;5.22;65.58
60417;BME280;46263;44.726;10.396;2023-01-28T07:42:24;100799.50;;;5.17;65.63
60417;BME280;46263;44.726;10.396;2023-01-28T07:44:49;100799.97;;;5.15;65.79
60417;BME280;46263;44.726;10.396;2023-01-28T07:47:15;100798.91;;;5.13;65.62
60417;BME280;46263;44.726;10.396;2023-01-28T07:49:41;100798.81;;;5.07;66.27
60417;BME280;46263;44.726;10.396;2023-01-28T07:52:07;100805.41;;;5.10;66.40
60417;BME280;46263;44.726;10.396;2023-01-28T07:54:33;100807.41;;;5.09;65.67
60417;BME280;46263;44.726;10.396;2023-01-28T07:56:59;100807.59;;;5.06;66.18
60417;BME280;46263;44.726;10.396;2023-01-28T07:59:24;100811.59;;;5.05;66.01
60417;BME280;46263;44.726;10.396;2023-01-28T08:01:50;100816.53;;;5.01;65.92
60417;BME280;46263;44.726;10.396;2023-01-28T08:04:15;100823.97;;;4.95;66.30
60417;BME280;46263;44.726;10.396;2023-01-28T08:06:41;100820.47;;;4.94;65.78
60417;BME280;46263;44.726;10.396;2023-01-28T08:09:06;100818.00;;;4.96;66.03
60417;BME280;46263;44.726;10.396;2023-01-28T08:11:33;100819.84;;;5.14;65.62
60417;BME280;46263;44.726;10.396;2023-01-28T08:14:01;100815.56;;;5.27;65.92
60417;BME280;46263;44.726;10.396;2023-01-28T08:16:27;100817.59;;;5.41;65.26
60417;BME280;46263;44.726;10.396;2023-01-28T08:18:53;100825.03;;;5.49;64.83
60417;BME280;46263;44.726;10.396;2023-01-28T08:21:19;100829.84;;;5.63;64.19
60417;BME280;46263;44.726;10.396;2023-01-28T08:23:45;100831.94;;;5.68;64.08
60417;BME280;46263;44.726;10.396;2023-01-28T08:26:11;100835.50;;;5.83;64.10
60417;BME280;46263;44.726;10.396;2023-01-28T08:28:36;100830.44;;;5.96;64.25
60417;BME280;46263;44.726;10.396;2023-01-28T08:31:02;100842.47;;;6.08;63.20
60417;BME280;46263;44.726;10.396;2023-01-28T08:33:28;100836.81;;;6.17;63.48
60417;BME280;46263;44.726;10.396;2023-01-28T08:35:53;100848.38;;;6.15;63.63
60417;BME280;46263;44.726;10.396;2023-01-28T08:38:19;100846.06;;;6.14;63.50
60417;BME280;46263;44.726;10.396;2023-01-28T08:40:46;100847.91;;;6.02;63.69
60417;BME280;46263;44.726;10.396;2023-01-28T08:43:12;100847.06;;;5.96;64.38
60417;BME280;46263;44.726;10.396;2023-01-28T08:45:41;100857.28;;;6.05;63.80
60417;BME280;46263;44.726;10.396;2023-01-28T08:48:10;100857.19;;;6.14;64.01
60417;BME280;46263;44.726;10.396;2023-01-28T08:50:37;100862.72;;;6.28;63.66
60417;BME280;46263;44.726;10.396;2023-01-28T08:53:06;100857.78;;;6.37;63.73
60417;BME280;46263;44.726;10.396;2023-01-28T08:55:33;100865.53;;;6.48;63.50
60417;BME280;46263;44.726;10.396;2023-01-28T08:58:04;100860.44;;;6.61;63.25
60417;BME280;46263;44.726;10.396;2023-01-28T09:00:30;100856.66;;;6.64;63.50
60417;BME280;46263;44.726;10.396;2023-01-28T09:02:55;100858.00;;;6.68;63.81
60417;BME280;46263;44.726;10.396;2023-01-28T09:05:21;100859.56;;;6.55;63.65
60417;BME280;46263;44.726;10.396;2023-01-28T09:07:47;100864.56;;;6.51;64.09
60417;BME280;46263;44.726;10.396;2023-01-28T09:10:13;100864.69;;;6.42;63.87
60417;BME280;46263;44.726;10.396;2023-01-28T09:12:41;100872.72;;;6.40;64.24
60417;BME280;46263;44.726;10.396;2023-01-28T09:15:07;100870.94;;;6.37;64.85
60417;BME280;46263;44.726;10.396;2023-01-28T09:17:33;100878.06;;;6.43;64.56
60417;BME280;46263;44.726;10.396;2023-01-28T09:19:58;100880.63;;;6.47;64.09
60417;BME280;46263;44.726;10.396;2023-01-28T09:22:24;100874.06;;;6.44;64.55
60417;BME280;46263;44.726;10.396;2023-01-28T09:24:50;100875.66;;;6.51;63.90
60417;BME280;46263;44.726;10.396;2023-01-28T09:27:15;100876.63;;;6.48;64.43
60417;BME280;46263;44.726;10.396;2023-01-28T09:29:41;100876.91;;;6.50;64.73
60417;BME280;46263;44.726;10.396;2023-01-28T09:32:07;100875.19;;;6.52;64.78
60417;BME280;46263;44.726;10.396;2023-01-28T09:34:33;100873.38;;;6.49;64.46
60417;BME280;46263;44.726;10.396;2023-01-28T09:36:59;100887.53;;;6.51;64.62
60417;BME280;46263;44.726;10.396;2023-01-28T09:39:24;100887.13;;;6.58;64.90
60417;BME280;46263;44.726;10.396;2023-01-28T09:47:26;100883.63;;;6.78;63.62
60417;BME280;46263;44.726;10.396;2023-01-28T09:49:56;100876.97;;;6.90;63.30
60417;BME280;46263;44.726;10.396;2023-01-28T09:52:24;100883.50;;;7.07;63.10
60417;BME280;46263;44.726;10.396;2023-01-28T09:55:33;100892.53;;;7.21;61.68
60417;BME280;46263;44.726;10.396;2023-01-28T09:58:00;100887.25;;;7.23;60.88
60417;BME280;46263;44.726;10.396;2023-01-28T10:00:42;100887.78;;;7.27;61.06
60417;BME280;46263;44.726;10.396;2023-01-28T10:14:06;100892.59;;;7.72;59.92
60417;BME280;46263;44.726;10.396;2023-01-28T10:16:34;100892.16;;;7.79;58.99
60417;BME280;46263;44.726;10.396;2023-01-28T10:19:11;100891.66;;;7.81;59.16
60417;BME280;46263;44.726;10.396;2023-01-28T10:21:43;100890.47;;;7.87;58.02
60417;BME280;46263;44.726;10.396;2023-01-28T10:26:48;100900.03;;;8.06;56.51
60417;BME280;46263;44.726;10.396;2023-01-28T10:29:17;100896.00;;;8.07;54.37
60417;BME280;46263;44.726;10.396;2023-01-28T10:31:52;100896.09;;;8.18;53.55
60417;BME280;46263;44.726;10.396;2023-01-28T10:34:18;100893.41;;;8.29;53.31
60417;BME280;46263;44.726;10.396;2023-01-28T10:36:45;100892.97;;;8.36;53.59
60417;BME280;46263;44.726;10.396;2023-01-28T10:39:15;100892.00;;;8.44;53.76
60417;BME280;46263;44.726;10.396;2023-01-28T10:41:41;100898.03;;;8.37;55.17
60417;BME280;46263;44.726;10.396;2023-01-28T10:44:15;100893.81;;;8.47;55.51
60417;BME280;46263;44.726;10.396;2023-01-28T10:46:44;100886.47;;;8.50;55.67
60417;BME280;46263;44.726;10.396;2023-01-28T10:49:17;100891.84;;;8.59;55.43
60417;BME280;46263;44.726;10.396;2023-01-28T10:51:46;100892.59;;;8.54;54.84
60417;BME280;46263;44.726;10.396;2023-01-28T10:56:56;100892.69;;;8.70;54.15
60417;BME280;46263;44.726;10.396;2023-01-28T10:59:31;100890.13;;;8.67;54.70
60417;BME280;46263;44.726;10.396;2023-01-28T11:02:00;100887.34;;;8.67;54.97
60417;BME280;46263;44.726;10.396;2023-01-28T11:04:31;100878.28;;;8.77;55.46
60417;BME280;46263;44.726;10.396;2023-01-28T11:07:06;100882.78;;;8.64;56.01
60417;BME280;46263;44.726;10.396;2023-01-28T11:09:45;100879.06;;;8.77;56.23
60417;BME280;46263;44.726;10.396;2023-01-28T11:12:18;100877.59;;;8.87;55.98
60417;BME280;46263;44.726;10.396;2023-01-28T11:17:18;100875.41;;;9.02;55.02
60417;BME280;46263;44.726;10.396;2023-01-28T11:19:44;100867.31;;;9.04;54.31
60417;BME280;46263;44.726;10.396;2023-01-28T11:22:42;100868.81;;;9.00;54.14
60417;BME280;46263;44.726;10.396;2023-01-28T11:25:29;100863.75;;;9.04;53.99
60417;BME280;46263;44.726;10.396;2023-01-28T11:27:56;100869.34;;;9.09;53.52
60417;BME280;46263;44.726;10.396;2023-01-28T11:30:25;100870.41;;;9.17;52.92
60417;BME280;46263;44.726;10.396;2023-01-28T11:33:04;100869.38;;;9.15;51.91
60417;BME280;46263;44.726;10.396;2023-01-28T11:35:31;100873.72;;;9.27;52.06
60417;BME280;46263;44.726;10.396;2023-01-28T11:37:58;100867.59;;;9.17;50.18
60417;BME280;46263;44.726;10.396;2023-01-28T11:40:25;100863.53;;;9.13;50.19
60417;BME280;46263;44.726;10.396;2023-01-28T11:42:52;100864.28;;;9.08;50.89
60417;BME280;46263;44.726;10.396;2023-01-28T11:45:45;100859.22;;;9.12;52.51
60417;BME280;46263;44.726;10.396;2023-01-28T12:08:15;100824.63;;;9.67;49.51
60417;BME280;46263;44.726;10.396;2023-01-28T12:10:53;100830.22;;;9.73;49.68
60417;BME280;46263;44.726;10.396;2023-01-28T12:17:19;100820.81;;;9.81;48.36
60417;BME280;46263;44.726;10.396;2023-01-28T12:21:59;100813.72;;;9.91;47.38
60417;BME280;46263;44.726;10.396;2023-01-28T12:24:45;100804.13;;;10.03;47.12
60417;BME280;46263;44.726;10.396;2023-01-28T12:30:08;100800.03;;;10.15;46.89
60417;BME280;46263;44.726;10.396;2023-01-28T12:32:46;100798.53;;;9.98;46.13
60417;BME280;46263;44.726;10.396;2023-01-28T12:35:27;100791.94;;;10.01;46.03
60417;BME280;46263;44.726;10.396;2023-01-28T12:41:07;100791.16;;;10.06;47.11
60417;BME280;46263;44.726;10.396;2023-01-28T12:43:44;100791.66;;;10.10;47.06
60417;BME280;46263;44.726;10.396;2023-01-28T12:46:21;100794.19;;;10.19;46.60
60417;BME280;46263;44.726;10.396;2023-01-28T12:48:54;100793.94;;;10.28;46.55
60417;BME280;46263;44.726;10.396;2023-01-28T12:51:27;100785.28;;;10.36;46.37
60417;BME280;46263;44.726;10.396;2023-01-28T12:56:55;100778.69;;;10.45;45.62
60417;BME280;46263;44.726;10.396;2023-01-28T12:59:23;100787.06;;;10.45;45.60
60417;BME280;46263;44.726;10.396;2023-01-28T13:05:08;100788.81;;;10.48;43.59
60417;BME280;46263;44.726;10.396;2023-01-28T13:07:52;100780.22;;;10.40;43.91
60417;BME280;46263;44.726;10.396;2023-01-28T13:10:28;100783.00;;;10.40;44.03
60417;BME280;46263;44.726;10.396;2023-01-28T13:12:57;100786.31;;;10.33;44.17
60417;BME280;46263;44.726;10.396;2023-01-28T13:15:24;100778.69;;;10.39;44.50
60417;BME280;46263;44.726;10.396;2023-01-28T13:18:01;100782.22;;;10.34;45.41
60417;BME280;46263;44.726;10.396;2023-01-28T13:20:49;100787.34;;;10.25;44.19
60417;BME280;46263;44.726;10.396;2023-01-28T13:25:55;100784.28;;;10.23;45.40
60417;BME280;46263;44.726;10.396;2023-01-28T13:28:32;100786.34;;;10.23;44.81
60417;BME280;46263;44.726;10.396;2023-01-28T13:31:13;100789.34;;;10.30;45.15
60417;BME280;46263;44.726;10.396;2023-01-28T13:33:46;100784.53;;;10.31;44.83
60417;BME280;46263;44.726;10.396;2023-01-28T13:36:24;100786.56;;;10.35;45.27
60417;BME280;46263;44.726;10.396;2023-01-28T13:39:04;100786.06;;;10.37;45.88
60417;BME280;46263;44.726;10.396;2023-01-28T13:41:41;100781.22;;;10.37;45.80
60417;BME280;46263;44.726;10.396;2023-01-28T13:46:45;100787.06;;;10.39;46.18
60417;BME280;46263;44.726;10.396;2023-01-28T13:49:15;100798.25;;;10.39;46.02
60417;BME280;46263;44.726;10.396;2023-01-28T13:51:59;100790.34;;;10.43;45.47
60417;BME280;46263;44.726;10.396;2023-01-28T13:54:29;100792.38;;;10.43;44.66
60417;BME280;46263;44.726;10.396;2023-01-28T14:13:00;100809.16;;;10.43;43.50
60417;BME280;46263;44.726;10.396;2023-01-28T14:20:51;100807.38;;;10.45;45.41
60417;BME280;46263;44.726;10.396;2023-01-28T14:23:19;100807.88;;;10.38;43.99
60417;BME280;46263;44.726;10.396;2023-01-28T14:31:31;100814.00;;;10.32;43.37
60417;BME280;46263;44.726;10.396;2023-01-28T14:36:43;100820.63;;;10.18;42.77
60417;BME280;46263;44.726;10.396;2023-01-28T14:39:25;100824.44;;;10.20;43.21
60417;BME280;46263;44.726;10.396;2023-01-28T14:41:53;100822.38;;;10.15;42.60
60417;BME280;46263;44.726;10.396;2023-01-28T14:50:59;100835.06;;;10.11;43.08
60417;BME280;46263;44.726;10.396;2023-01-28T14:52:50;100825.44;;;10.17;43.96
60417;BME280;46263;44.726;10.396;2023-01-28T14:55:44;100842.72;;;10.16;44.44
60417;BME280;46263;44.726;10.396;2023-01-28T14:58:36;100832.03;;;10.20;45.32
60417;BME280;46263;44.726;10.396;2023-01-28T15:01:03;100839.41;;;10.23;44.93
60417;BME280;46263;44.726;10.396;2023-01-28T15:03:30;100838.88;;;10.24;45.68
60417;BME280;46263;44.726;10.396;2023-01-28T15:06:12;100840.41;;;10.20;45.20